sensor_id;sensor_type;location;lat;lon;timestamp;P1;durP1;ratioP1;P2;durP2;ratioP2
19760;SDS011;10039;42.632;23.408;2023-07-28T00:01:42;0.10;;;0.10;;
19760;SDS011;10039;42.632;23.408;2023-07-28T00:04:11;0.10;;;0.10;;
19760;SDS011;10039;42.632;23.408;2023-07-28T00:06:37;0.20;;;0.20;;
19760;SDS011;10039;42.632;23.408;2023-07-28T00:09:07;0.20;;;0.20;;
19760;SDS011;10039;42.632;23.408;2023-07-28T00:11:35;0.10;;;0.10;;
19760;SDS011;10039;42.632;23.408;2023-07-28T00:14:17;0.10;;;0.10;;
19760;SDS011;10039;42.632;23.408;2023-07-28T00:16:52;0.20;;;0.20;;
19760;SDS011;10039;42.632;23.408;2023-07-28T00:19:21;0.10;;;0.10;;
19760;SDS011;10039;42.632;23.408;2023-07-28T00:22:07;0.10;;;0.10;;
19760;SDS011;10039;42.632;23.408;2023-07-28T00:24:36;0.10;;;0.10;;
19760;SDS011;10039;42.632;23.408;2023-07-28T00:27:12;0.10;;;0.10;;
19760;SDS011;10039;42.632;23.408;2023-07-28T00:29:45;0.20;;;0.20;;
19760;SDS011;10039;42.632;23.408;2023-07-28T00:32:20;0.10;;;0.10;;
19760;SDS011;10039;42.632;23.408;2023-07-28T00:34:52;0.10;;;0.10;;
19760;SDS011;10039;42.632;23.408;2023-07-28T00:37:32;0.10;;;0.10;;
19760;SDS011;10039;42.632;23.408;2023-07-28T00:39:59;0.13;;;0.13;;
19760;SDS011;10039;42.632;23.408;2023-07-28T00:42:31;0.20;;;0.20;;
19760;SDS011;10039;42.632;23.408;2023-07-28T00:45:01;0.10;;;0.10;;
19760;SDS011;10039;42.632;23.408;2023-07-28T00:47:30;0.10;;;0.10;;
19760;SDS011;10039;42.632;23.408;2023-07-28T00:49:56;0.10;;;0.10;;
19760;SDS011;10039;42.632;23.408;2023-07-28T00:52:28;0.10;;;0.10;;
19760;SDS011;10039;42.632;23.408;2023-07-28T00:54:57;0.10;;;0.10;;
19760;SDS011;10039;42.632;23.408;2023-07-28T00:57:23;0.15;;;0.15;;
19760;SDS011;10039;42.632;23.408;2023-07-28T00:59:52;0.10;;;0.10;;
19760;SDS011;10039;42.632;23.408;2023-07-28T01:02:24;0.10;;;0.10;;
19760;SDS011;10039;42.632;23.408;2023-07-28T01:04:56;0.20;;;0.20;;
19760;SDS011;10039;42.632;23.408;2023-07-28T01:07:43;0.13;;;0.13;;
19760;SDS011;10039;42.632;23.408;2023-07-28T01:10:44;0.10;;;0.10;;
19760;SDS011;10039;42.632;23.408;2023-07-28T01:13:12;0.10;;;0.10;;
19760;SDS011;10039;42.632;23.408;2023-07-28T01:15:45;0.20;;;0.20;;
19760;SDS011;10039;42.632;23.408;2023-07-28T01:18:17;0.20;;;0.20;;
19760;SDS011;10039;42.632;23.408;2023-07-28T01:20:46;0.20;;;0.20;;
19760;SDS011;10039;42.632;23.408;2023-07-28T01:23:28;0.20;;;0.20;;
19760;SDS011;10039;42.632;23.408;2023-07-28T01:26:10;0.10;;;0.10;;
19760;SDS011;10039;42.632;23.408;2023-07-28T01:28:45;0.20;;;0.20;;
19760;SDS011;10039;42.632;23.408;2023-07-28T01:31:17;0.20;;;0.20;;
19760;SDS011;10039;42.632;23.408;2023-07-28T01:33:52;0.20;;;0.20;;
19760;SDS011;10039;42.632;23.408;2023-07-28T01:36:24;0.20;;;0.20;;
19760;SDS011;10039;42.632;23.408;2023-07-28T01:38:51;0.20;;;0.20;;
19760;SDS011;10039;42.632;23.408;2023-07-28T01:41:16;0.15;;;0.15;;
19760;SDS011;10039;42.632;23.408;2023-07-28T01:43:42;0.20;;;0.20;;
19760;SDS011;10039;42.632;23.408;2023-07-28T01:46:08;0.10;;;0.10;;
19760;SDS011;10039;42.632;23.408;2023-07-28T01:48:34;0.20;;;0.20;;
19760;SDS011;10039;42.632;23.408;2023-07-28T01:51:00;0.10;;;0.10;;
19760;SDS011;10039;42.632;23.408;2023-07-28T01:53:26;0.20;;;0.20;;
19760;SDS011;10039;42.632;23.408;2023-07-28T01:55:52;0.20;;;0.20;;
19760;SDS011;10039;42.632;23.408;2023-07-28T01:58:21;0.20;;;0.20;;
19760;SDS011;10039;42.632;23.408;2023-07-28T02:00:49;0.10;;;0.10;;
19760;SDS011;10039;42.632;23.408;2023-07-28T02:03:15;0.10;;;0.10;;
19760;SDS011;10039;42.632;23.408;2023-07-28T02:05:43;0.10;;;0.10;;
19760;SDS011;10039;42.632;23.408;2023-07-28T02:08:09;0.20;;;0.20;;
19760;SDS011;10039;42.632;23.408;2023-07-28T02:10:35;0.10;;;0.10;;
19760;SDS011;10039;42.632;23.408;2023-07-28T02:13:01;0.13;;;0.13;;
19760;SDS011;10039;42.632;23.408;2023-07-28T02:15:27;0.10;;;0.10;;
19760;SDS011;10039;42.632;23.408;2023-07-28T02:17:55;0.20;;;0.20;;
19760;SDS011;10039;42.632;23.408;2023-07-28T02:20:21;0.20;;;0.20;;
19760;SDS011;10039;42.632;23.408;2023-07-28T02:22:47;0.10;;;0.10;;
19760;SDS011;10039;42.632;23.408;2023-07-28T02:25:15;0.13;;;0.13;;
19760;SDS011;10039;42.632;23.408;2023-07-28T02:27:49;0.10;;;0.10;;
19760;SDS011;10039;42.632;23.408;2023-07-28T02:30:27;0.10;;;0.10;;
19760;SDS011;10039;42.632;23.408;2023-07-28T02:32:57;0.20;;;0.20;;
19760;SDS011;10039;42.632;23.408;2023-07-28T02:35:23;0.10;;;0.10;;
19760;SDS011;10039;42.632;23.408;2023-07-28T02:37:51;0.20;;;0.20;;
19760;SDS011;10039;42.632;23.408;2023-07-28T02:40:18;0.20;;;0.20;;
19760;SDS011;10039;42.632;23.408;2023-07-28T02:42:47;0.10;;;0.10;;
19760;SDS011;10039;42.632;23.408;2023-07-28T02:45:13;0.10;;;0.10;;
19760;SDS011;10039;42.632;23.408;2023-07-28T02:47:45;0.15;;;0.15;;
19760;SDS011;10039;42.632;23.408;2023-07-28T02:50:14;0.10;;;0.10;;
19760;SDS011;10039;42.632;23.408;2023-07-28T02:52:44;0.20;;;0.20;;
19760;SDS011;10039;42.632;23.408;2023-07-28T02:55:20;0.15;;;0.15;;
19760;SDS011;10039;42.632;23.408;2023-07-28T02:57:49;0.10;;;0.10;;
19760;SDS011;10039;42.632;23.408;2023-07-28T03:00:19;0.10;;;0.10;;
19760;SDS011;10039;42.632;23.408;2023-07-28T03:02:48;0.10;;;0.10;;
19760;SDS011;10039;42.632;23.408;2023-07-28T03:05:13;0.20;;;0.20;;
19760;SDS011;10039;42.632;23.408;2023-07-28T03:07:42;0.10;;;0.10;;
19760;SDS011;10039;42.632;23.408;2023-07-28T03:10:17;0.20;;;0.20;;
19760;SDS011;10039;42.632;23.408;2023-07-28T03:12:48;0.10;;;0.10;;
19760;SDS011;10039;42.632;23.408;2023-07-28T03:15:18;0.15;;;0.15;;
19760;SDS011;10039;42.632;23.408;2023-07-28T03:17:45;0.20;;;0.20;;
19760;SDS011;10039;42.632;23.408;2023-07-28T03:20:14;0.10;;;0.10;;
19760;SDS011;10039;42.632;23.408;2023-07-28T03:22:41;0.10;;;0.10;;
19760;SDS011;10039;42.632;23.408;2023-07-28T03:25:10;0.20;;;0.20;;
19760;SDS011;10039;42.632;23.408;2023-07-28T03:27:43;0.10;;;0.10;;
19760;SDS011;10039;42.632;23.408;2023-07-28T03:30:09;0.20;;;0.20;;
19760;SDS011;10039;42.632;23.408;2023-07-28T03:32:35;0.20;;;0.20;;
19760;SDS011;10039;42.632;23.408;2023-07-28T03:35:05;0.20;;;0.20;;
19760;SDS011;10039;42.632;23.408;2023-07-28T03:37:36;0.20;;;0.20;;
19760;SDS011;10039;42.632;23.408;2023-07-28T03:40:16;0.10;;;0.10;;
19760;SDS011;10039;42.632;23.408;2023-07-28T03:42:50;0.10;;;0.10;;
19760;SDS011;10039;42.632;23.408;2023-07-28T03:45:17;0.20;;;0.20;;
19760;SDS011;10039;42.632;23.408;2023-07-28T03:47:47;0.20;;;0.20;;
19760;SDS011;10039;42.632;23.408;2023-07-28T03:50:13;0.20;;;0.20;;
19760;SDS011;10039;42.632;23.408;2023-07-28T03:53:13;0.10;;;0.10;;
19760;SDS011;10039;42.632;23.408;2023-07-28T03:56:03;0.20;;;0.20;;
19760;SDS011;10039;42.632;23.408;2023-07-28T03:58:57;0.10;;;0.10;;
19760;SDS011;10039;42.632;23.408;2023-07-28T04:01:36;0.20;;;0.20;;
19760;SDS011;10039;42.632;23.408;2023-07-28T04:04:02;0.10;;;0.10;;
19760;SDS011;10039;42.632;23.408;2023-07-28T04:09:18;0.20;;;0.20;;
19760;SDS011;10039;42.632;23.408;2023-07-28T04:11:46;0.10;;;0.10;;
19760;SDS011;10039;42.632;23.408;2023-07-28T04:14:16;0.13;;;0.13;;
19760;SDS011;10039;42.632;23.408;2023-07-28T04:16:44;0.20;;;0.20;;
19760;SDS011;10039;42.632;23.408;2023-07-28T04:19:10;0.20;;;0.20;;
19760;SDS011;10039;42.632;23.408;2023-07-28T04:21:42;0.10;;;0.10;;
19760;SDS011;10039;42.632;23.408;2023-07-28T04:24:17;0.20;;;0.20;;
19760;SDS011;10039;42.632;23.408;2023-07-28T04:26:46;0.20;;;0.20;;
19760;SDS011;10039;42.632;23.408;2023-07-28T04:29:18;0.10;;;0.10;;
19760;SDS011;10039;42.632;23.408;2023-07-28T04:31:48;0.10;;;0.10;;
19760;SDS011;10039;42.632;23.408;2023-07-28T04:34:14;0.10;;;0.10;;
19760;SDS011;10039;42.632;23.408;2023-07-28T04:36:43;0.10;;;0.10;;
19760;SDS011;10039;42.632;23.408;2023-07-28T04:39:17;0.20;;;0.20;;
19760;SDS011;10039;42.632;23.408;2023-07-28T04:41:46;0.10;;;0.10;;
19760;SDS011;10039;42.632;23.408;2023-07-28T04:44:17;0.20;;;0.20;;
19760;SDS011;10039;42.632;23.408;2023-07-28T04:46:47;0.15;;;0.15;;
19760;SDS011;10039;42.632;23.408;2023-07-28T04:49:24;0.10;;;0.10;;
19760;SDS011;10039;42.632;23.408;2023-07-28T04:51:55;0.20;;;0.20;;
19760;SDS011;10039;42.632;23.408;2023-07-28T04:54:32;0.20;;;0.20;;
19760;SDS011;10039;42.632;23.408;2023-07-28T04:57:05;0.10;;;0.10;;
19760;SDS011;10039;42.632;23.408;2023-07-28T04:59:38;0.10;;;0.10;;
19760;SDS011;10039;42.632;23.408;2023-07-28T05:02:30;0.20;;;0.20;;
19760;SDS011;10039;42.632;23.408;2023-07-28T05:04:56;0.15;;;0.15;;
19760;SDS011;10039;42.632;23.408;2023-07-28T05:07:24;0.10;;;0.10;;
19760;SDS011;10039;42.632;23.408;2023-07-28T05:09:54;0.10;;;0.10;;
19760;SDS011;10039;42.632;23.408;2023-07-28T05:12:23;0.10;;;0.10;;
19760;SDS011;10039;42.632;23.408;2023-07-28T05:14:52;0.10;;;0.10;;
19760;SDS011;10039;42.632;23.408;2023-07-28T05:17:18;0.10;;;0.10;;
19760;SDS011;10039;42.632;23.408;2023-07-28T05:19:47;0.10;;;0.10;;
19760;SDS011;10039;42.632;23.408;2023-07-28T05:22:14;0.10;;;0.10;;
19760;SDS011;10039;42.632;23.408;2023-07-28T05:24:43;0.20;;;0.20;;
19760;SDS011;10039;42.632;23.408;2023-07-28T05:27:14;0.10;;;0.10;;
19760;SDS011;10039;42.632;23.408;2023-07-28T05:29:40;0.20;;;0.20;;
19760;SDS011;10039;42.632;23.408;2023-07-28T05:32:06;0.20;;;0.20;;
19760;SDS011;10039;42.632;23.408;2023-07-28T05:34:34;0.10;;;0.10;;
19760;SDS011;10039;42.632;23.408;2023-07-28T05:37:03;0.10;;;0.10;;
19760;SDS011;10039;42.632;23.408;2023-07-28T05:39:32;0.10;;;0.10;;
19760;SDS011;10039;42.632;23.408;2023-07-28T05:42:01;0.00;;;0.00;;
19760;SDS011;10039;42.632;23.408;2023-07-28T05:44:34;0.10;;;0.10;;
19760;SDS011;10039;42.632;23.408;2023-07-28T05:47:03;0.15;;;0.15;;
19760;SDS011;10039;42.632;23.408;2023-07-28T05:49:31;0.10;;;0.10;;
19760;SDS011;10039;42.632;23.408;2023-07-28T05:51:57;0.10;;;0.10;;
19760;SDS011;10039;42.632;23.408;2023-07-28T05:54:23;0.10;;;0.10;;
19760;SDS011;10039;42.632;23.408;2023-07-28T05:56:49;0.13;;;0.13;;
19760;SDS011;10039;42.632;23.408;2023-07-28T05:59:15;0.10;;;0.10;;
19760;SDS011;10039;42.632;23.408;2023-07-28T06:01:40;0.10;;;0.10;;
19760;SDS011;10039;42.632;23.408;2023-07-28T06:04:06;0.10;;;0.10;;
19760;SDS011;10039;42.632;23.408;2023-07-28T06:06:35;0.10;;;0.10;;
19760;SDS011;10039;42.632;23.408;2023-07-28T06:09:06;0.10;;;0.10;;
19760;SDS011;10039;42.632;23.408;2023-07-28T06:11:31;0.10;;;0.10;;
19760;SDS011;10039;42.632;23.408;2023-07-28T06:14:04;0.10;;;0.10;;
19760;SDS011;10039;42.632;23.408;2023-07-28T06:16:36;0.10;;;0.10;;
19760;SDS011;10039;42.632;23.408;2023-07-28T06:19:01;0.10;;;0.10;;
19760;SDS011;10039;42.632;23.408;2023-07-28T06:21:30;0.10;;;0.10;;
19760;SDS011;10039;42.632;23.408;2023-07-28T06:23:58;0.05;;;0.05;;
19760;SDS011;10039;42.632;23.408;2023-07-28T06:26:24;0.10;;;0.10;;
19760;SDS011;10039;42.632;23.408;2023-07-28T06:28:52;0.10;;;0.10;;
19760;SDS011;10039;42.632;23.408;2023-07-28T06:31:18;0.10;;;0.10;;
19760;SDS011;10039;42.632;23.408;2023-07-28T06:33:43;0.10;;;0.10;;
19760;SDS011;10039;42.632;23.408;2023-07-28T06:36:09;0.10;;;0.10;;
19760;SDS011;10039;42.632;23.408;2023-07-28T06:38:35;0.10;;;0.10;;
19760;SDS011;10039;42.632;23.408;2023-07-28T06:41:00;0.10;;;0.10;;
19760;SDS011;10039;42.632;23.408;2023-07-28T06:43:26;0.10;;;0.10;;
19760;SDS011;10039;42.632;23.408;2023-07-28T06:45:59;0.10;;;0.10;;
19760;SDS011;10039;42.632;23.408;2023-07-28T06:48:28;0.17;;;0.17;;
19760;SDS011;10039;42.632;23.408;2023-07-28T06:54:01;0.10;;;0.10;;
19760;SDS011;10039;42.632;23.408;2023-07-28T06:56:27;0.10;;;0.10;;
19760;SDS011;10039;42.632;23.408;2023-07-28T06:58:52;0.10;;;0.10;;
19760;SDS011;10039;42.632;23.408;2023-07-28T07:01:18;0.10;;;0.10;;
19760;SDS011;10039;42.632;23.408;2023-07-28T07:03:44;0.10;;;0.10;;
19760;SDS011;10039;42.632;23.408;2023-07-28T07:06:13;0.10;;;0.10;;
19760;SDS011;10039;42.632;23.408;2023-07-28T07:08:40;0.10;;;0.10;;
19760;SDS011;10039;42.632;23.408;2023-07-28T07:11:05;0.10;;;0.10;;
19760;SDS011;10039;42.632;23.408;2023-07-28T07:13:51;0.10;;;0.10;;
19760;SDS011;10039;42.632;23.408;2023-07-28T07:16:18;0.10;;;0.10;;
19760;SDS011;10039;42.632;23.408;2023-07-28T07:18:53;0.10;;;0.10;;
19760;SDS011;10039;42.632;23.408;2023-07-28T07:21:19;0.00;;;0.00;;
19760;SDS011;10039;42.632;23.408;2023-07-28T07:23:49;0.10;;;0.10;;
19760;SDS011;10039;42.632;23.408;2023-07-28T07:26:22;0.10;;;0.10;;
19760;SDS011;10039;42.632;23.408;2023-07-28T07:28:48;0.10;;;0.10;;
19760;SDS011;10039;42.632;23.408;2023-07-28T07:31:17;0.10;;;0.10;;
19760;SDS011;10039;42.632;23.408;2023-07-28T07:33:45;0.10;;;0.10;;
19760;SDS011;10039;42.632;23.408;2023-07-28T07:36:12;0.00;;;0.00;;
19760;SDS011;10039;42.632;23.408;2023-07-28T07:38:41;0.00;;;0.00;;
19760;SDS011;10039;42.632;23.408;2023-07-28T07:41:18;0.10;;;0.10;;
19760;SDS011;10039;42.632;23.408;2023-07-28T07:43:52;0.03;;;0.03;;
19760;SDS011;10039;42.632;23.408;2023-07-28T07:46:19;0.03;;;0.03;;
19760;SDS011;10039;42.632;23.408;2023-07-28T07:48:45;0.00;;;0.00;;
19760;SDS011;10039;42.632;23.408;2023-07-28T07:51:14;0.10;;;0.10;;
19760;SDS011;10039;42.632;23.408;2023-07-28T07:53:43;0.05;;;0.05;;
19760;SDS011;10039;42.632;23.408;2023-07-28T07:56:14;0.10;;;0.10;;
19760;SDS011;10039;42.632;23.408;2023-07-28T07:58:43;0.10;;;0.10;;
19760;SDS011;10039;42.632;23.408;2023-07-28T08:01:12;0.05;;;0.05;;
19760;SDS011;10039;42.632;23.408;2023-07-28T08:03:40;0.00;;;0.00;;
19760;SDS011;10039;42.632;23.408;2023-07-28T08:06:06;0.03;;;0.03;;
19760;SDS011;10039;42.632;23.408;2023-07-28T08:08:33;0.05;;;0.05;;
19760;SDS011;10039;42.632;23.408;2023-07-28T08:10:59;0.10;;;0.10;;
19760;SDS011;10039;42.632;23.408;2023-07-28T08:13:33;0.00;;;0.00;;
19760;SDS011;10039;42.632;23.408;2023-07-28T08:15:59;0.08;;;0.08;;
19760;SDS011;10039;42.632;23.408;2023-07-28T08:18:25;0.00;;;0.00;;
19760;SDS011;10039;42.632;23.408;2023-07-28T08:20:51;0.00;;;0.00;;
19760;SDS011;10039;42.632;23.408;2023-07-28T08:23:16;0.00;;;0.00;;
19760;SDS011;10039;42.632;23.408;2023-07-28T08:25:42;0.08;;;0.08;;
19760;SDS011;10039;42.632;23.408;2023-07-28T08:28:07;0.00;;;0.00;;
19760;SDS011;10039;42.632;23.408;2023-07-28T08:30:34;0.00;;;0.00;;
19760;SDS011;10039;42.632;23.408;2023-07-28T08:33:03;0.10;;;0.10;;
19760;SDS011;10039;42.632;23.408;2023-07-28T08:35:29;0.00;;;0.00;;
19760;SDS011;10039;42.632;23.408;2023-07-28T08:37:55;0.00;;;0.00;;
19760;SDS011;10039;42.632;23.408;2023-07-28T08:43:02;0.00;;;0.00;;
19760;SDS011;10039;42.632;23.408;2023-07-28T08:45:27;0.00;;;0.00;;
19760;SDS011;10039;42.632;23.408;2023-07-28T08:47:53;0.00;;;0.00;;
19760;SDS011;10039;42.632;23.408;2023-07-28T08:50:22;0.00;;;0.00;;
19760;SDS011;10039;42.632;23.408;2023-07-28T08:52:48;0.00;;;0.00;;
19760;SDS011;10039;42.632;23.408;2023-07-28T08:55:15;0.00;;;0.00;;
19760;SDS011;10039;42.632;23.408;2023-07-28T08:57:44;0.00;;;0.00;;
19760;SDS011;10039;42.632;23.408;2023-07-28T09:00:09;0.00;;;0.00;;
19760;SDS011;10039;42.632;23.408;2023-07-28T09:02:38;0.00;;;0.00;;
19760;SDS011;10039;42.632;23.408;2023-07-28T09:05:29;0.03;;;0.03;;
19760;SDS011;10039;42.632;23.408;2023-07-28T09:07:58;0.00;;;0.00;;
19760;SDS011;10039;42.632;23.408;2023-07-28T09:10:24;0.00;;;0.00;;
19760;SDS011;10039;42.632;23.408;2023-07-28T09:13:14;0.00;;;0.00;;
19760;SDS011;10039;42.632;23.408;2023-07-28T09:15:41;0.00;;;0.00;;
19760;SDS011;10039;42.632;23.408;2023-07-28T09:18:08;0.00;;;0.00;;
19760;SDS011;10039;42.632;23.408;2023-07-28T09:20:35;0.00;;;0.00;;
19760;SDS011;10039;42.632;23.408;2023-07-28T09:23:02;0.00;;;0.00;;
19760;SDS011;10039;42.632;23.408;2023-07-28T09:25:29;0.00;;;0.00;;
19760;SDS011;10039;42.632;23.408;2023-07-28T09:27:55;0.00;;;0.00;;
19760;SDS011;10039;42.632;23.408;2023-07-28T09:30:21;0.00;;;0.00;;
19760;SDS011;10039;42.632;23.408;2023-07-28T09:32:50;0.00;;;0.00;;
19760;SDS011;10039;42.632;23.408;2023-07-28T09:35:18;0.00;;;0.00;;
19760;SDS011;10039;42.632;23.408;2023-07-28T09:37:48;0.00;;;0.00;;
19760;SDS011;10039;42.632;23.408;2023-07-28T09:43:14;0.00;;;0.00;;
19760;SDS011;10039;42.632;23.408;2023-07-28T09:45:39;0.00;;;0.00;;
19760;SDS011;10039;42.632;23.408;2023-07-28T09:48:08;0.00;;;0.00;;
19760;SDS011;10039;42.632;23.408;2023-07-28T09:50:36;0.00;;;0.00;;
19760;SDS011;10039;42.632;23.408;2023-07-28T09:53:04;0.00;;;0.00;;
19760;SDS011;10039;42.632;23.408;2023-07-28T09:55:33;0.00;;;0.00;;
19760;SDS011;10039;42.632;23.408;2023-07-28T09:58:02;0.00;;;0.00;;
19760;SDS011;10039;42.632;23.408;2023-07-28T10:00:31;0.00;;;0.00;;
19760;SDS011;10039;42.632;23.408;2023-07-28T10:02:57;0.00;;;0.00;;
19760;SDS011;10039;42.632;23.408;2023-07-28T10:05:24;0.00;;;0.00;;
19760;SDS011;10039;42.632;23.408;2023-07-28T10:07:50;0.00;;;0.00;;
19760;SDS011;10039;42.632;23.408;2023-07-28T10:10:17;0.00;;;0.00;;
19760;SDS011;10039;42.632;23.408;2023-07-28T10:12:50;0.00;;;0.00;;
19760;SDS011;10039;42.632;23.408;2023-07-28T10:15:27;0.00;;;0.00;;
19760;SDS011;10039;42.632;23.408;2023-07-28T10:17:55;0.00;;;0.00;;
19760;SDS011;10039;42.632;23.408;2023-07-28T10:20:37;0.00;;;0.00;;
19760;SDS011;10039;42.632;23.408;2023-07-28T10:23:07;0.00;;;0.00;;
19760;SDS011;10039;42.632;23.408;2023-07-28T10:25:39;0.00;;;0.00;;
19760;SDS011;10039;42.632;23.408;2023-07-28T10:31:00;0.00;;;0.00;;
19760;SDS011;10039;42.632;23.408;2023-07-28T10:33:28;0.00;;;0.00;;
19760;SDS011;10039;42.632;23.408;2023-07-28T10:35:57;0.00;;;0.00;;
19760;SDS011;10039;42.632;23.408;2023-07-28T10:38:34;0.00;;;0.00;;
19760;SDS011;10039;42.632;23.408;2023-07-28T10:43:49;0.00;;;0.00;;
19760;SDS011;10039;42.632;23.408;2023-07-28T10:46:20;0.00;;;0.00;;
19760;SDS011;10039;42.632;23.408;2023-07-28T10:48:48;0.00;;;0.00;;
19760;SDS011;10039;42.632;23.408;2023-07-28T10:51:21;0.00;;;0.00;;
19760;SDS011;10039;42.632;23.408;2023-07-28T10:53:57;0.00;;;0.00;;
19760;SDS011;10039;42.632;23.408;2023-07-28T10:56:23;0.00;;;0.00;;
19760;SDS011;10039;42.632;23.408;2023-07-28T10:59:03;0.00;;;0.00;;
19760;SDS011;10039;42.632;23.408;2023-07-28T11:01:32;0.00;;;0.00;;
19760;SDS011;10039;42.632;23.408;2023-07-28T11:04:07;0.00;;;0.00;;
19760;SDS011;10039;42.632;23.408;2023-07-28T11:06:41;0.00;;;0.00;;
19760;SDS011;10039;42.632;23.408;2023-07-28T11:09:08;0.00;;;0.00;;
19760;SDS011;10039;42.632;23.408;2023-07-28T11:11:38;0.00;;;0.00;;
19760;SDS011;10039;42.632;23.408;2023-07-28T11:14:10;0.00;;;0.00;;
19760;SDS011;10039;42.632;23.408;2023-07-28T11:16:37;0.00;;;0.00;;
19760;SDS011;10039;42.632;23.408;2023-07-28T11:19:14;0.00;;;0.00;;
19760;SDS011;10039;42.632;23.408;2023-07-28T11:21:49;0.00;;;0.00;;
19760;SDS011;10039;42.632;23.408;2023-07-28T11:24:19;0.00;;;0.00;;
19760;SDS011;10039;42.632;23.408;2023-07-28T11:26:45;0.00;;;0.00;;
19760;SDS011;10039;42.632;23.408;2023-07-28T11:29:11;0.00;;;0.00;;
19760;SDS011;10039;42.632;23.408;2023-07-28T11:31:37;0.00;;;0.00;;
19760;SDS011;10039;42.632;23.408;2023-07-28T11:34:12;0.00;;;0.00;;
19760;SDS011;10039;42.632;23.408;2023-07-28T11:36:41;0.00;;;0.00;;
19760;SDS011;10039;42.632;23.408;2023-07-28T11:39:07;0.00;;;0.00;;
19760;SDS011;10039;42.632;23.408;2023-07-28T11:41:38;0.00;;;0.00;;
19760;SDS011;10039;42.632;23.408;2023-07-28T11:44:07;0.00;;;0.00;;
19760;SDS011;10039;42.632;23.408;2023-07-28T11:46:40;0.00;;;0.00;;
19760;SDS011;10039;42.632;23.408;2023-07-28T11:49:11;0.00;;;0.00;;
19760;SDS011;10039;42.632;23.408;2023-07-28T11:51:38;0.00;;;0.00;;
19760;SDS011;10039;42.632;23.408;2023-07-28T11:54:08;0.00;;;0.00;;
19760;SDS011;10039;42.632;23.408;2023-07-28T11:56:54;0.00;;;0.00;;
19760;SDS011;10039;42.632;23.408;2023-07-28T11:59:21;0.00;;;0.00;;
19760;SDS011;10039;42.632;23.408;2023-07-28T12:01:59;0.00;;;0.00;;
19760;SDS011;10039;42.632;23.408;2023-07-28T12:04:27;0.00;;;0.00;;
19760;SDS011;10039;42.632;23.408;2023-07-28T12:07:07;0.00;;;0.00;;
19760;SDS011;10039;42.632;23.408;2023-07-28T12:12:11;0.00;;;0.00;;
19760;SDS011;10039;42.632;23.408;2023-07-28T12:14:44;0.00;;;0.00;;
19760;SDS011;10039;42.632;23.408;2023-07-28T12:17:15;0.00;;;0.00;;
19760;SDS011;10039;42.632;23.408;2023-07-28T12:20:07;0.00;;;0.00;;
19760;SDS011;10039;42.632;23.408;2023-07-28T12:22:40;0.00;;;0.00;;
19760;SDS011;10039;42.632;23.408;2023-07-28T12:25:09;0.00;;;0.00;;
19760;SDS011;10039;42.632;23.408;2023-07-28T12:27:35;0.00;;;0.00;;
19760;SDS011;10039;42.632;23.408;2023-07-28T12:30:02;0.00;;;0.00;;
19760;SDS011;10039;42.632;23.408;2023-07-28T12:32:29;0.00;;;0.00;;
19760;SDS011;10039;42.632;23.408;2023-07-28T12:34:54;0.00;;;0.00;;
19760;SDS011;10039;42.632;23.408;2023-07-28T12:37:26;0.00;;;0.00;;
19760;SDS011;10039;42.632;23.408;2023-07-28T12:39:51;0.00;;;0.00;;
19760;SDS011;10039;42.632;23.408;2023-07-28T12:42:17;0.00;;;0.00;;
19760;SDS011;10039;42.632;23.408;2023-07-28T12:44:42;0.00;;;0.00;;
19760;SDS011;10039;42.632;23.408;2023-07-28T12:47:08;0.00;;;0.00;;
19760;SDS011;10039;42.632;23.408;2023-07-28T12:49:34;0.00;;;0.00;;
19760;SDS011;10039;42.632;23.408;2023-07-28T12:52:00;0.00;;;0.00;;
19760;SDS011;10039;42.632;23.408;2023-07-28T12:54:27;0.00;;;0.00;;
19760;SDS011;10039;42.632;23.408;2023-07-28T12:56:53;0.00;;;0.00;;
19760;SDS011;10039;42.632;23.408;2023-07-28T12:59:22;0.00;;;0.00;;
19760;SDS011;10039;42.632;23.408;2023-07-28T13:01:50;0.00;;;0.00;;
19760;SDS011;10039;42.632;23.408;2023-07-28T13:04:19;0.00;;;0.00;;
19760;SDS011;10039;42.632;23.408;2023-07-28T13:06:44;0.00;;;0.00;;
19760;SDS011;10039;42.632;23.408;2023-07-28T13:09:12;0.00;;;0.00;;
19760;SDS011;10039;42.632;23.408;2023-07-28T13:11:38;0.00;;;0.00;;
19760;SDS011;10039;42.632;23.408;2023-07-28T13:14:11;0.00;;;0.00;;
19760;SDS011;10039;42.632;23.408;2023-07-28T13:16:43;0.00;;;0.00;;
19760;SDS011;10039;42.632;23.408;2023-07-28T13:19:12;0.00;;;0.00;;
19760;SDS011;10039;42.632;23.408;2023-07-28T13:21:37;0.00;;;0.00;;
19760;SDS011;10039;42.632;23.408;2023-07-28T13:24:03;0.00;;;0.00;;
19760;SDS011;10039;42.632;23.408;2023-07-28T13:26:38;0.00;;;0.00;;
19760;SDS011;10039;42.632;23.408;2023-07-28T13:29:05;0.00;;;0.00;;
19760;SDS011;10039;42.632;23.408;2023-07-28T13:31:33;0.00;;;0.00;;
19760;SDS011;10039;42.632;23.408;2023-07-28T13:34:00;0.00;;;0.00;;
19760;SDS011;10039;42.632;23.408;2023-07-28T13:36:27;0.00;;;0.00;;
19760;SDS011;10039;42.632;23.408;2023-07-28T13:38:53;0.00;;;0.00;;
19760;SDS011;10039;42.632;23.408;2023-07-28T13:41:24;0.00;;;0.00;;
19760;SDS011;10039;42.632;23.408;2023-07-28T13:43:50;0.00;;;0.00;;
19760;SDS011;10039;42.632;23.408;2023-07-28T13:46:16;0.00;;;0.00;;
19760;SDS011;10039;42.632;23.408;2023-07-28T13:48:45;0.00;;;0.00;;
19760;SDS011;10039;42.632;23.408;2023-07-28T13:51:15;0.00;;;0.00;;
19760;SDS011;10039;42.632;23.408;2023-07-28T13:53:43;0.00;;;0.00;;
19760;SDS011;10039;42.632;23.408;2023-07-28T13:56:24;0.00;;;0.00;;
19760;SDS011;10039;42.632;23.408;2023-07-28T13:58:50;0.00;;;0.00;;
19760;SDS011;10039;42.632;23.408;2023-07-28T14:01:16;0.00;;;0.00;;
19760;SDS011;10039;42.632;23.408;2023-07-28T14:03:45;0.00;;;0.00;;
19760;SDS011;10039;42.632;23.408;2023-07-28T14:06:11;0.00;;;0.00;;
19760;SDS011;10039;42.632;23.408;2023-07-28T14:08:36;0.00;;;0.00;;
19760;SDS011;10039;42.632;23.408;2023-07-28T14:11:05;0.00;;;0.00;;
19760;SDS011;10039;42.632;23.408;2023-07-28T14:13:40;0.00;;;0.00;;
19760;SDS011;10039;42.632;23.408;2023-07-28T14:16:11;0.00;;;0.00;;
19760;SDS011;10039;42.632;23.408;2023-07-28T14:18:40;0.00;;;0.00;;
19760;SDS011;10039;42.632;23.408;2023-07-28T14:21:05;0.00;;;0.00;;
19760;SDS011;10039;42.632;23.408;2023-07-28T14:23:32;0.00;;;0.00;;
19760;SDS011;10039;42.632;23.408;2023-07-28T14:26:01;0.00;;;0.00;;
19760;SDS011;10039;42.632;23.408;2023-07-28T14:28:27;0.00;;;0.00;;
19760;SDS011;10039;42.632;23.408;2023-07-28T14:30:53;0.00;;;0.00;;
19760;SDS011;10039;42.632;23.408;2023-07-28T14:33:18;0.00;;;0.00;;
19760;SDS011;10039;42.632;23.408;2023-07-28T14:35:44;0.00;;;0.00;;
19760;SDS011;10039;42.632;23.408;2023-07-28T14:38:14;0.00;;;0.00;;
19760;SDS011;10039;42.632;23.408;2023-07-28T14:43:31;0.00;;;0.00;;
19760;SDS011;10039;42.632;23.408;2023-07-28T14:45:57;0.00;;;0.00;;
19760;SDS011;10039;42.632;23.408;2023-07-28T14:48:26;0.00;;;0.00;;
19760;SDS011;10039;42.632;23.408;2023-07-28T14:50:54;0.00;;;0.00;;
19760;SDS011;10039;42.632;23.408;2023-07-28T14:53:32;0.00;;;0.00;;
19760;SDS011;10039;42.632;23.408;2023-07-28T14:56:00;0.00;;;0.00;;
19760;SDS011;10039;42.632;23.408;2023-07-28T14:58:27;0.00;;;0.00;;
19760;SDS011;10039;42.632;23.408;2023-07-28T15:00:53;0.00;;;0.00;;
19760;SDS011;10039;42.632;23.408;2023-07-28T15:03:19;0.00;;;0.00;;
19760;SDS011;10039;42.632;23.408;2023-07-28T15:05:45;0.00;;;0.00;;
19760;SDS011;10039;42.632;23.408;2023-07-28T15:08:10;0.00;;;0.00;;
19760;SDS011;10039;42.632;23.408;2023-07-28T15:10:36;0.00;;;0.00;;